createdAt,value
2023-05-05T00:01:27.388Z,9.30
2023-05-05T00:03:54.333Z,9.40
2023-05-05T00:06:21.261Z,9.40
2023-05-05T00:08:48.157Z,9.30
2023-05-05T00:11:15.099Z,9.40
2023-05-05T00:13:42.118Z,9.30
2023-05-05T00:16:09.276Z,9.40
2023-05-05T00:18:36.089Z,9.30
2023-05-05T00:21:04.465Z,9.40
2023-05-05T00:23:31.371Z,9.30
2023-05-05T00:25:58.243Z,9.40
2023-05-05T00:28:25.081Z,9.40
2023-05-05T00:30:52.127Z,9.30
2023-05-05T00:33:19.121Z,9.40
2023-05-05T00:35:45.942Z,9.30
2023-05-05T00:38:12.989Z,9.40
2023-05-05T00:40:39.905Z,9.40
2023-05-05T00:43:07.711Z,9.50
2023-05-05T00:45:37.366Z,9.40
2023-05-05T00:48:04.763Z,9.40
2023-05-05T00:50:31.778Z,9.20
2023-05-05T00:53:05.232Z,9.10
2023-05-05T00:55:33.539Z,9.20
2023-05-05T01:00:30.886Z,9.30
2023-05-05T01:02:58.103Z,9.30
2023-05-05T01:05:27.127Z,9.30
2023-05-05T01:07:59.726Z,9.20
2023-05-05T01:10:44.226Z,9.20
2023-05-05T01:13:27.398Z,9.10
2023-05-05T01:16:04.211Z,9.10
2023-05-05T01:18:39.314Z,9.10
2023-05-05T01:21:12.039Z,9.10
2023-05-05T01:24:00.536Z,9.10
2023-05-05T01:26:33.543Z,9.10
2023-05-05T01:29:26.099Z,9.20
2023-05-05T01:31:54.934Z,9.20
2023-05-05T01:34:30.475Z,9.10
2023-05-05T01:37:07.576Z,9.10
2023-05-05T01:39:36.913Z,9.10
2023-05-05T01:42:08.366Z,9.10
2023-05-05T01:44:37.045Z,9.00
2023-05-05T01:47:05.172Z,9.00
2023-05-05T01:49:34.319Z,8.90
2023-05-05T01:52:03.762Z,9.00
2023-05-05T01:54:34.355Z,9.00
2023-05-05T01:57:04.792Z,9.00
2023-05-05T01:59:33.341Z,9.00
2023-05-05T02:02:02.196Z,9.00
2023-05-05T02:04:31.681Z,8.90
2023-05-05T02:06:59.585Z,8.90
2023-05-05T02:09:29.543Z,8.90
2023-05-05T02:11:58.772Z,9.00
2023-05-05T02:14:28.788Z,9.00
2023-05-05T02:16:57.769Z,9.00
2023-05-05T02:19:34.374Z,9.00
2023-05-05T02:22:01.252Z,8.90
2023-05-05T02:24:28.948Z,8.90
2023-05-05T02:26:59.156Z,8.90
2023-05-05T02:29:32.676Z,9.00
2023-05-05T02:32:06.920Z,8.90
2023-05-05T02:34:37.789Z,8.90
2023-05-05T02:37:08.679Z,8.90
2023-05-05T02:39:47.322Z,8.90
2023-05-05T02:42:18.504Z,8.90
2023-05-05T02:44:46.728Z,8.80
2023-05-05T02:47:13.660Z,8.80
2023-05-05T02:49:40.562Z,8.80
2023-05-05T02:52:07.518Z,8.80
2023-05-05T02:54:34.480Z,8.80
2023-05-05T02:57:01.982Z,8.70
2023-05-05T02:59:47.355Z,8.80
2023-05-05T03:02:20.471Z,8.80
2023-05-05T03:04:52.499Z,8.80
2023-05-05T03:07:25.823Z,8.70
2023-05-05T03:10:09.689Z,8.80
2023-05-05T03:12:43.242Z,8.70
2023-05-05T03:15:11.239Z,8.70
2023-05-05T03:17:40.989Z,8.70
2023-05-05T03:20:08.749Z,8.60
2023-05-05T03:22:37.250Z,8.60
2023-05-05T03:25:05.064Z,8.60
2023-05-05T03:27:32.248Z,8.60
2023-05-05T03:29:59.359Z,8.70
2023-05-05T03:32:27.155Z,8.60
2023-05-05T03:34:54.074Z,8.60
2023-05-05T03:37:20.891Z,8.70
2023-05-05T03:39:47.895Z,8.60
2023-05-05T03:42:14.827Z,8.60
2023-05-05T03:44:41.766Z,8.60
2023-05-05T03:47:08.590Z,8.60
2023-05-05T03:52:02.816Z,8.70
2023-05-05T03:54:29.658Z,8.70
2023-05-05T03:56:56.542Z,8.70
2023-05-05T03:59:23.610Z,8.70
2023-05-05T04:01:50.479Z,8.70
2023-05-05T04:04:17.477Z,8.70
2023-05-05T04:06:44.351Z,8.80
2023-05-05T04:09:12.092Z,8.80
2023-05-05T04:11:38.977Z,8.80
2023-05-05T04:14:05.856Z,8.80
2023-05-05T04:16:32.805Z,8.80
2023-05-05T04:18:59.731Z,8.80
2023-05-05T04:21:27.083Z,8.80
2023-05-05T04:23:54.049Z,8.80
2023-05-05T04:26:21.055Z,8.90
2023-05-05T04:28:47.940Z,8.90
2023-05-05T04:31:14.902Z,8.90
2023-05-05T04:33:41.828Z,9.00
2023-05-05T04:36:08.984Z,9.00
2023-05-05T04:38:35.922Z,9.00
2023-05-05T04:41:06.490Z,9.00
2023-05-05T04:43:33.993Z,9.00
2023-05-05T04:46:00.969Z,8.90
2023-05-05T04:48:27.820Z,8.90
2023-05-05T04:50:54.785Z,9.00
2023-05-05T04:53:21.787Z,8.90
2023-05-05T04:55:48.685Z,8.90
2023-05-05T04:58:15.858Z,8.90
2023-05-05T05:00:42.732Z,8.90
2023-05-05T05:03:10.240Z,9.00
2023-05-05T05:05:37.076Z,9.00
2023-05-05T05:08:04.118Z,8.90
2023-05-05T05:10:30.978Z,9.00
2023-05-05T05:12:57.906Z,9.00
2023-05-05T05:15:24.879Z,9.10
2023-05-05T05:17:51.849Z,9.00
2023-05-05T05:20:19.067Z,9.10
2023-05-05T05:22:46.235Z,9.20
2023-05-05T05:25:13.183Z,9.20
2023-05-05T05:27:40.163Z,9.20
2023-05-05T05:30:07.873Z,9.20
2023-05-05T05:32:34.834Z,9.20
2023-05-05T05:35:01.687Z,9.20
2023-05-05T05:37:31.628Z,9.30
2023-05-05T05:39:58.468Z,9.30
2023-05-05T05:42:25.363Z,9.40
2023-05-05T05:44:52.315Z,9.40
2023-05-05T05:47:19.327Z,9.50
2023-05-05T05:49:46.211Z,9.50
2023-05-05T05:52:13.107Z,9.70
2023-05-05T05:54:39.970Z,10.10
2023-05-05T05:57:06.978Z,10.70
2023-05-05T05:59:33.921Z,11.30
2023-05-05T06:02:01.556Z,11.40
2023-05-05T06:04:28.577Z,11.60
2023-05-05T06:06:56.115Z,11.60
2023-05-05T06:09:23.048Z,11.90
2023-05-05T06:11:49.899Z,11.90
2023-05-05T06:14:18.121Z,11.80
2023-05-05T06:16:45.732Z,11.70
2023-05-05T06:19:12.586Z,11.90
2023-05-05T06:21:39.437Z,12.00
2023-05-05T06:24:06.537Z,11.90
2023-05-05T06:26:33.421Z,11.90
2023-05-05T06:29:00.242Z,11.90
2023-05-05T06:31:27.243Z,11.90
2023-05-05T06:33:54.188Z,11.80
2023-05-05T06:36:21.282Z,11.50
2023-05-05T06:38:48.301Z,11.40
2023-05-05T06:41:15.131Z,11.20
2023-05-05T06:43:43.022Z,11.20
2023-05-05T06:46:09.856Z,11.30
2023-05-05T06:48:36.928Z,11.30
2023-05-05T06:51:03.970Z,11.70
2023-05-05T06:53:30.915Z,11.80
2023-05-05T06:55:57.749Z,12.20
2023-05-05T06:58:24.673Z,12.00
2023-05-05T07:00:51.652Z,11.80
2023-05-05T07:03:18.709Z,11.70
2023-05-05T07:05:45.690Z,11.70
2023-05-05T07:08:13.212Z,11.50
2023-05-05T07:10:40.095Z,11.70
2023-05-05T07:13:08.265Z,11.80
2023-05-05T07:15:35.342Z,11.90
2023-05-05T07:18:02.335Z,11.80
2023-05-05T07:20:29.299Z,12.20
2023-05-05T07:22:56.332Z,12.20
2023-05-05T07:25:23.272Z,12.20
2023-05-05T07:27:50.635Z,12.10
2023-05-05T07:30:18.979Z,12.10
2023-05-05T07:32:46.720Z,12.30
2023-05-05T07:35:13.829Z,12.50
2023-05-05T07:37:40.804Z,12.40
2023-05-05T07:40:08.930Z,12.50
2023-05-05T07:42:36.251Z,12.60
2023-05-05T07:45:03.625Z,12.70
2023-05-05T07:47:30.522Z,12.60
2023-05-05T07:49:57.709Z,12.90
2023-05-05T07:52:37.392Z,13.00
2023-05-05T07:55:11.023Z,13.20
2023-05-05T07:57:38.436Z,13.70
2023-05-05T08:00:06.324Z,14.30
2023-05-05T08:02:33.622Z,14.60
2023-05-05T08:05:00.736Z,15.30
2023-05-05T08:07:27.583Z,15.50
2023-05-05T08:09:54.448Z,15.50
2023-05-05T08:12:21.430Z,15.50
2023-05-05T08:14:48.260Z,15.50
2023-05-05T08:17:16.259Z,15.80
2023-05-05T08:19:43.093Z,15.90
2023-05-05T08:22:09.977Z,15.90
2023-05-05T08:24:36.824Z,15.70
2023-05-05T08:27:04.138Z,14.80
2023-05-05T08:29:31.160Z,14.20
2023-05-05T08:31:58.134Z,13.80
2023-05-05T08:34:25.397Z,13.60
2023-05-05T08:36:52.262Z,13.70
2023-05-05T08:39:19.446Z,13.90
2023-05-05T08:41:46.278Z,14.20
2023-05-05T08:44:13.322Z,14.70
2023-05-05T08:46:41.569Z,14.50
2023-05-05T08:49:14.829Z,14.30
2023-05-05T08:51:43.179Z,14.20
2023-05-05T08:54:17.811Z,14.30
2023-05-05T08:56:49.643Z,14.70
2023-05-05T08:59:18.430Z,15.30
2023-05-05T09:01:45.640Z,15.30
2023-05-05T09:04:12.557Z,16.00
2023-05-05T09:06:39.698Z,16.40
2023-05-05T09:09:07.070Z,17.00
2023-05-05T09:11:35.310Z,16.80
2023-05-05T09:14:02.208Z,16.80
2023-05-05T09:16:29.148Z,16.90
2023-05-05T09:19:05.377Z,16.30
2023-05-05T09:21:32.493Z,16.20
2023-05-05T09:24:13.161Z,15.70
2023-05-05T09:26:43.221Z,14.80
2023-05-05T09:29:17.121Z,14.70
2023-05-05T09:31:44.258Z,14.80
2023-05-05T09:34:17.422Z,15.00
2023-05-05T09:36:47.949Z,15.20
2023-05-05T09:39:19.659Z,15.50
2023-05-05T09:41:47.182Z,15.90
2023-05-05T09:44:17.415Z,16.60
2023-05-05T09:46:55.258Z,16.90
2023-05-05T09:49:25.260Z,17.00
2023-05-05T09:51:52.921Z,16.50
2023-05-05T09:54:30.747Z,17.00
2023-05-05T09:56:57.969Z,17.00
2023-05-05T09:59:25.308Z,16.80
2023-05-05T10:01:52.361Z,16.70
2023-05-05T10:04:26.551Z,16.50
2023-05-05T10:06:54.476Z,16.30
2023-05-05T10:09:21.590Z,16.00
2023-05-05T10:11:49.447Z,15.50
2023-05-05T10:14:17.946Z,15.30
2023-05-05T10:16:53.669Z,15.00
2023-05-05T10:19:23.527Z,14.90
2023-05-05T10:21:51.597Z,14.80
2023-05-05T10:24:27.444Z,14.60
2023-05-05T10:26:58.069Z,14.40
2023-05-05T10:29:51.347Z,14.70
2023-05-05T10:32:53.175Z,14.60
2023-05-05T10:35:22.906Z,14.20
2023-05-05T10:37:50.661Z,14.00
2023-05-05T10:40:20.283Z,14.20
2023-05-05T10:42:48.859Z,15.20
2023-05-05T10:45:16.518Z,16.10
2023-05-05T10:47:44.596Z,15.50
2023-05-05T10:50:11.632Z,15.10
2023-05-05T10:52:49.128Z,14.80
2023-05-05T10:55:36.692Z,15.00
2023-05-05T10:58:03.596Z,14.90
2023-05-05T11:00:39.674Z,14.70
2023-05-05T11:03:18.745Z,14.90
2023-05-05T11:06:04.275Z,15.00
2023-05-05T11:08:39.676Z,14.60
2023-05-05T11:11:07.424Z,14.70
2023-05-05T11:13:34.334Z,14.00
2023-05-05T11:16:04.560Z,13.70
2023-05-05T11:18:31.499Z,13.70
2023-05-05T11:20:58.344Z,13.70
2023-05-05T11:23:26.124Z,13.30
2023-05-05T11:25:54.020Z,13.30
2023-05-05T11:28:24.937Z,13.50
2023-05-05T11:30:54.950Z,13.60
2023-05-05T11:33:33.174Z,13.90
2023-05-05T11:36:05.085Z,14.30
2023-05-05T11:38:39.223Z,14.70
2023-05-05T11:41:10.091Z,14.60
2023-05-05T11:43:37.013Z,14.40
2023-05-05T11:46:14.956Z,14.60
2023-05-05T11:48:49.288Z,14.50
2023-05-05T11:51:17.573Z,14.40
2023-05-05T11:53:47.070Z,14.40
2023-05-05T11:56:19.036Z,14.40
2023-05-05T11:58:47.172Z,14.10
2023-05-05T12:01:15.266Z,14.00
2023-05-05T12:03:43.459Z,13.60
2023-05-05T12:06:10.671Z,13.50
2023-05-05T12:08:38.856Z,13.50
2023-05-05T12:11:08.005Z,13.60
2023-05-05T12:13:35.395Z,13.10
2023-05-05T12:16:12.984Z,13.20
2023-05-05T12:18:40.778Z,13.30
2023-05-05T12:21:20.880Z,13.20
2023-05-05T12:23:47.909Z,13.40
2023-05-05T12:26:29.137Z,12.90
2023-05-05T12:28:57.537Z,12.90
2023-05-05T12:31:38.692Z,12.70
2023-05-05T12:34:07.190Z,12.60
2023-05-05T12:36:34.706Z,12.60
2023-05-05T12:39:02.077Z,12.50
2023-05-05T12:41:28.988Z,12.60
2023-05-05T12:43:57.121Z,12.70
2023-05-05T12:46:24.633Z,12.50
2023-05-05T12:49:17.828Z,12.40
2023-05-05T12:51:55.866Z,12.20
2023-05-05T12:54:25.020Z,12.10
2023-05-05T12:56:51.887Z,12.10
2023-05-05T12:59:21.426Z,12.30
2023-05-05T13:01:50.199Z,12.30
2023-05-05T13:04:18.023Z,12.40
2023-05-05T13:06:46.817Z,12.30
2023-05-05T13:09:27.819Z,12.20
2023-05-05T13:11:55.059Z,11.70
2023-05-05T13:14:22.332Z,11.80
2023-05-05T13:16:49.405Z,11.80
2023-05-05T13:19:16.332Z,11.70
2023-05-05T13:21:43.164Z,11.70
2023-05-05T13:24:21.204Z,11.80
2023-05-05T13:26:53.370Z,11.60
2023-05-05T13:29:20.270Z,11.40
2023-05-05T13:31:47.407Z,11.30
2023-05-05T13:34:14.438Z,11.30
2023-05-05T13:36:41.295Z,11.40
2023-05-05T13:39:08.949Z,11.30
2023-05-05T13:41:35.762Z,11.10
2023-05-05T13:44:02.805Z,11.00
2023-05-05T13:46:29.724Z,10.90
2023-05-05T13:48:57.034Z,11.00
2023-05-05T13:51:23.895Z,11.00
2023-05-05T13:53:50.886Z,11.00
2023-05-05T13:56:19.097Z,11.00
2023-05-05T13:58:46.446Z,10.90
2023-05-05T14:01:13.547Z,10.80
2023-05-05T14:03:40.704Z,10.90
2023-05-05T14:06:09.131Z,11.10
2023-05-05T14:08:36.033Z,11.20
2023-05-05T14:11:03.297Z,11.20
2023-05-05T14:13:30.258Z,11.10
2023-05-05T14:15:58.448Z,11.10
2023-05-05T14:18:28.336Z,11.20
2023-05-05T14:20:55.330Z,11.20
2023-05-05T14:23:22.189Z,11.30
2023-05-05T14:25:49.115Z,11.40
2023-05-05T14:28:16.181Z,11.40
2023-05-05T14:30:43.046Z,11.40
2023-05-05T14:33:10.229Z,11.40
2023-05-05T14:35:37.089Z,11.30
2023-05-05T14:38:04.019Z,11.20
2023-05-05T14:40:31.323Z,11.30
2023-05-05T14:42:58.269Z,11.30
2023-05-05T14:45:25.866Z,11.20
2023-05-05T14:47:52.855Z,11.30
2023-05-05T14:50:19.699Z,11.30
2023-05-05T14:52:46.503Z,11.20
2023-05-05T14:55:13.372Z,11.30
2023-05-05T14:57:40.252Z,11.40
2023-05-05T15:00:07.874Z,11.50
2023-05-05T15:02:34.928Z,11.70
2023-05-05T15:05:01.924Z,11.60
2023-05-05T15:07:29.148Z,11.70
2023-05-05T15:09:58.970Z,11.60
2023-05-05T15:12:26.090Z,11.60
2023-05-05T15:14:52.982Z,11.80
2023-05-05T15:17:19.961Z,11.80
2023-05-05T15:19:46.909Z,11.80
2023-05-05T15:22:13.782Z,12.00
2023-05-05T15:24:40.734Z,11.90
2023-05-05T15:27:07.964Z,11.90
2023-05-05T15:29:35.933Z,11.80
2023-05-05T15:32:02.863Z,11.70
2023-05-05T15:34:29.849Z,11.60
2023-05-05T15:36:56.993Z,11.60
2023-05-05T15:39:23.994Z,11.80
2023-05-05T15:41:50.822Z,11.60
2023-05-05T15:44:17.742Z,11.50
2023-05-05T15:46:44.639Z,11.50
2023-05-05T15:49:11.524Z,11.50
2023-05-05T15:51:38.467Z,11.50
2023-05-05T15:54:05.647Z,11.60
2023-05-05T15:56:33.120Z,11.50
2023-05-05T15:59:00.077Z,11.60
2023-05-05T16:01:27.060Z,11.50
2023-05-05T16:03:54.071Z,11.50
2023-05-05T16:06:21.997Z,11.30
2023-05-05T16:08:51.706Z,11.20
2023-05-05T16:11:21.205Z,11.00
2023-05-05T16:13:49.379Z,11.00
2023-05-05T16:16:16.436Z,10.80
2023-05-05T16:18:43.376Z,10.70
2023-05-05T16:21:10.851Z,10.70
2023-05-05T16:23:38.019Z,10.70
2023-05-05T16:26:04.950Z,10.60
2023-05-05T16:28:34.263Z,10.70
2023-05-05T16:31:02.219Z,10.70
2023-05-05T16:33:30.047Z,10.60
2023-05-05T16:35:56.992Z,10.60
2023-05-05T16:38:23.960Z,10.60
2023-05-05T16:40:51.117Z,10.50
2023-05-05T16:43:19.551Z,10.40
2023-05-05T16:45:46.869Z,10.40
2023-05-05T16:48:14.710Z,10.40
2023-05-05T16:50:41.726Z,10.30
2023-05-05T16:53:10.129Z,10.30
2023-05-05T16:55:37.457Z,10.30
2023-05-05T16:58:04.776Z,10.20
2023-05-05T17:00:31.650Z,10.20
2023-05-05T17:02:58.847Z,10.20
2023-05-05T17:05:25.894Z,10.20
2023-05-05T17:07:52.876Z,10.20
2023-05-05T17:10:19.928Z,10.00
2023-05-05T17:12:46.899Z,10.10
2023-05-05T17:15:13.883Z,10.20
2023-05-05T17:17:42.362Z,10.00
2023-05-05T17:20:10.778Z,9.90
2023-05-05T17:22:38.442Z,9.80
2023-05-05T17:25:05.845Z,9.80
2023-05-05T17:27:32.745Z,9.70
2023-05-05T17:29:59.693Z,9.80
2023-05-05T17:32:26.625Z,9.70
2023-05-05T17:34:53.627Z,9.70
2023-05-05T17:37:20.465Z,9.60
2023-05-05T17:39:47.369Z,9.40
2023-05-05T17:42:14.228Z,9.40
2023-05-05T17:44:41.166Z,9.30
2023-05-05T17:47:08.539Z,9.30
2023-05-05T17:49:35.499Z,9.30
2023-05-05T17:52:02.394Z,9.30
2023-05-05T17:54:29.457Z,9.20
2023-05-05T17:56:56.422Z,9.10
2023-05-05T17:59:23.453Z,9.10
2023-05-05T18:01:50.382Z,9.10
2023-05-05T18:04:17.562Z,9.00
2023-05-05T18:06:44.472Z,9.00
2023-05-05T18:09:12.086Z,9.00
2023-05-05T18:11:38.952Z,8.90
2023-05-05T18:14:05.810Z,8.90
2023-05-05T18:16:32.775Z,8.90
2023-05-05T18:18:59.692Z,8.90
2023-05-05T18:21:26.956Z,8.80
2023-05-05T18:23:57.282Z,8.80
2023-05-05T18:26:28.782Z,8.70
2023-05-05T18:28:55.648Z,8.70
2023-05-05T18:31:22.631Z,8.70
2023-05-05T18:33:49.707Z,8.50
2023-05-05T18:36:16.617Z,8.60
2023-05-05T18:38:43.861Z,8.40
2023-05-05T18:41:11.010Z,8.40
2023-05-05T18:43:37.920Z,8.40
2023-05-05T18:46:04.814Z,8.20
2023-05-05T18:48:31.646Z,8.10
2023-05-05T18:51:02.973Z,8.00
2023-05-05T18:53:31.846Z,8.00
2023-05-05T18:55:59.261Z,7.90
2023-05-05T18:58:27.259Z,7.80
2023-05-05T19:00:54.600Z,7.80
2023-05-05T19:03:22.064Z,7.80
2023-05-05T19:05:48.945Z,7.60
2023-05-05T19:08:15.822Z,7.70
2023-05-05T19:10:42.698Z,7.60
2023-05-05T19:13:10.978Z,7.60
2023-05-05T19:15:37.937Z,7.60
2023-05-05T19:18:06.405Z,7.70
2023-05-05T19:20:33.602Z,7.70
2023-05-05T19:23:03.812Z,7.60
2023-05-05T19:25:31.418Z,7.50
2023-05-05T19:27:58.417Z,7.50
2023-05-05T19:30:25.449Z,7.60
2023-05-05T19:32:52.409Z,7.50
2023-05-05T19:35:19.467Z,7.60
2023-05-05T19:37:46.364Z,7.50
2023-05-05T19:40:13.670Z,7.60
2023-05-05T19:42:40.795Z,7.60
2023-05-05T19:45:08.222Z,7.50
2023-05-05T19:47:36.270Z,7.50
2023-05-05T19:50:04.599Z,7.50
2023-05-05T19:52:31.455Z,7.40
2023-05-05T19:54:59.184Z,7.50
2023-05-05T19:57:26.361Z,7.40
2023-05-05T19:59:53.389Z,7.50
2023-05-05T20:02:22.057Z,7.40
2023-05-05T20:04:49.652Z,7.30
2023-05-05T20:07:17.953Z,7.40
2023-05-05T20:09:45.179Z,7.30
2023-05-05T20:12:12.300Z,7.30
2023-05-05T20:14:39.164Z,7.40
2023-05-05T20:17:06.000Z,7.40
2023-05-05T20:19:32.939Z,7.30
2023-05-05T20:21:59.825Z,7.30
2023-05-05T20:24:28.548Z,7.40
2023-05-05T20:26:55.468Z,7.40
2023-05-05T20:29:22.650Z,7.40
2023-05-05T20:31:49.756Z,7.30
2023-05-05T20:34:16.864Z,7.30
2023-05-05T20:36:43.754Z,7.30
2023-05-05T20:39:15.984Z,7.20
2023-05-05T20:41:42.885Z,7.20
2023-05-05T20:44:10.310Z,7.20
2023-05-05T20:46:37.856Z,7.20
2023-05-05T20:49:04.815Z,7.20
2023-05-05T20:51:34.283Z,7.10
2023-05-05T20:54:02.430Z,7.10
2023-05-05T20:56:29.269Z,7.10
2023-05-05T20:58:56.811Z,7.20
2023-05-05T21:01:23.782Z,7.20
2023-05-05T21:03:50.777Z,7.20
2023-05-05T21:06:19.524Z,7.20
2023-05-05T21:08:47.172Z,7.30
2023-05-05T21:11:14.052Z,7.20
2023-05-05T21:13:40.872Z,7.20
2023-05-05T21:16:07.796Z,7.10
2023-05-05T21:18:34.761Z,7.10
2023-05-05T21:21:01.639Z,7.20
2023-05-05T21:23:28.541Z,7.10
2023-05-05T21:25:55.760Z,7.20
2023-05-05T21:28:22.655Z,7.20
2023-05-05T21:31:04.975Z,7.10
2023-05-05T21:33:38.318Z,7.10
2023-05-05T21:36:06.243Z,7.00
2023-05-05T21:38:33.201Z,7.00
2023-05-05T21:41:00.114Z,7.00
2023-05-05T21:43:30.205Z,7.00
2023-05-05T21:46:02.160Z,7.10
2023-05-05T21:48:29.364Z,7.10
2023-05-05T21:50:56.229Z,7.10
2023-05-05T21:53:23.551Z,7.20
2023-05-05T21:55:50.567Z,7.20
2023-05-05T21:58:17.530Z,7.10
2023-05-05T22:00:45.024Z,7.10
2023-05-05T22:03:12.159Z,7.20
2023-05-05T22:05:38.996Z,7.10
2023-05-05T22:08:05.973Z,7.00
2023-05-05T22:10:32.854Z,7.00
2023-05-05T22:12:59.744Z,7.00
2023-05-05T22:15:32.632Z,7.00
2023-05-05T22:18:02.992Z,7.00
2023-05-05T22:20:30.306Z,7.00
2023-05-05T22:22:58.074Z,7.00
2023-05-05T22:25:25.048Z,6.90
2023-05-05T22:27:51.936Z,6.90
2023-05-05T22:30:18.799Z,6.90
2023-05-05T22:32:46.329Z,6.90
2023-05-05T22:35:13.204Z,7.00
2023-05-05T22:37:40.104Z,7.00
2023-05-05T22:40:09.634Z,6.90
2023-05-05T22:42:36.713Z,7.00
2023-05-05T22:45:03.817Z,7.00
2023-05-05T22:47:31.169Z,7.10
2023-05-05T22:49:58.338Z,7.10
2023-05-05T22:52:28.005Z,7.20
2023-05-05T22:54:55.633Z,7.10
2023-05-05T22:57:22.498Z,7.10
2023-05-05T22:59:50.811Z,7.10
2023-05-05T23:02:17.767Z,7.10
2023-05-05T23:04:44.970Z,7.00
2023-05-05T23:07:12.618Z,7.10
2023-05-05T23:09:40.663Z,7.00
2023-05-05T23:12:07.684Z,7.00
2023-05-05T23:14:35.844Z,7.10
2023-05-05T23:17:02.805Z,7.10
2023-05-05T23:19:32.372Z,7.00
2023-05-05T23:21:59.754Z,7.10
2023-05-05T23:24:27.753Z,7.00
2023-05-05T23:26:56.671Z,7.10
2023-05-05T23:29:23.530Z,7.10
2023-05-05T23:31:50.374Z,7.00
2023-05-05T23:34:17.237Z,7.10
2023-05-05T23:36:44.061Z,7.10
2023-05-05T23:39:11.102Z,7.00
2023-05-05T23:41:38.043Z,7.10
2023-05-05T23:44:04.914Z,7.10
2023-05-05T23:46:31.885Z,7.10
2023-05-05T23:48:58.767Z,7.10
2023-05-05T23:51:27.182Z,7.10
2023-05-05T23:53:56.181Z,7.10
2023-05-05T23:56:24.388Z,7.10
2023-05-05T23:58:52.419Z,7.20
